sensor_id;sensor_type;location;lat;lon;timestamp;temperature;humidity
15930;DHT22;8064;51.142;4.780;2022-07-10T00:01:57;15.20;92.60
15930;DHT22;8064;51.142;4.780;2022-07-10T00:04:22;15.20;92.70
15930;DHT22;8064;51.142;4.780;2022-07-10T00:06:48;15.10;92.70
15930;DHT22;8064;51.142;4.780;2022-07-10T00:09:14;15.10;92.80
15930;DHT22;8064;51.142;4.780;2022-07-10T00:11:41;15.10;92.80
15930;DHT22;8064;51.142;4.780;2022-07-10T00:14:07;15.00;92.80
15930;DHT22;8064;51.142;4.780;2022-07-10T00:16:33;15.00;92.80
15930;DHT22;8064;51.142;4.780;2022-07-10T00:18:59;15.00;92.90
15930;DHT22;8064;51.142;4.780;2022-07-10T00:21:24;14.90;92.90
15930;DHT22;8064;51.142;4.780;2022-07-10T00:23:50;14.90;92.90
15930;DHT22;8064;51.142;4.780;2022-07-10T00:26:16;14.80;93.00
15930;DHT22;8064;51.142;4.780;2022-07-10T00:28:42;14.80;93.10
15930;DHT22;8064;51.142;4.780;2022-07-10T00:31:07;14.80;93.20
15930;DHT22;8064;51.142;4.780;2022-07-10T00:33:36;14.70;93.20
15930;DHT22;8064;51.142;4.780;2022-07-10T00:36:03;14.70;93.20
15930;DHT22;8064;51.142;4.780;2022-07-10T00:38:30;14.70;93.30
15930;DHT22;8064;51.142;4.780;2022-07-10T00:40:56;14.70;93.40
15930;DHT22;8064;51.142;4.780;2022-07-10T00:43:22;14.60;93.40
15930;DHT22;8064;51.142;4.780;2022-07-10T00:45:49;14.60;93.50
15930;DHT22;8064;51.142;4.780;2022-07-10T00:48:14;14.60;93.50
15930;DHT22;8064;51.142;4.780;2022-07-10T00:50:42;14.60;93.50
15930;DHT22;8064;51.142;4.780;2022-07-10T00:53:08;14.60;93.60
15930;DHT22;8064;51.142;4.780;2022-07-10T00:55:36;14.60;93.60
15930;DHT22;8064;51.142;4.780;2022-07-10T00:58:06;14.60;94.00
15930;DHT22;8064;51.142;4.780;2022-07-10T01:00:34;14.60;93.80
15930;DHT22;8064;51.142;4.780;2022-07-10T01:03:03;14.50;93.70
15930;DHT22;8064;51.142;4.780;2022-07-10T01:05:29;14.50;93.80
15930;DHT22;8064;51.142;4.780;2022-07-10T01:07:55;14.50;93.80
15930;DHT22;8064;51.142;4.780;2022-07-10T01:10:20;14.50;93.80
15930;DHT22;8064;51.142;4.780;2022-07-10T01:12:46;14.50;93.80
15930;DHT22;8064;51.142;4.780;2022-07-10T01:15:12;14.40;93.80
15930;DHT22;8064;51.142;4.780;2022-07-10T01:17:38;14.40;93.90
15930;DHT22;8064;51.142;4.780;2022-07-10T01:20:07;14.40;94.00
15930;DHT22;8064;51.142;4.780;2022-07-10T01:22:33;14.30;94.00
15930;DHT22;8064;51.142;4.780;2022-07-10T01:24:59;14.40;94.10
15930;DHT22;8064;51.142;4.780;2022-07-10T01:27:25;14.30;94.10
15930;DHT22;8064;51.142;4.780;2022-07-10T01:29:51;14.30;94.10
15930;DHT22;8064;51.142;4.780;2022-07-10T01:32:18;14.30;94.20
15930;DHT22;8064;51.142;4.780;2022-07-10T01:34:44;14.30;94.20
15930;DHT22;8064;51.142;4.780;2022-07-10T01:37:10;14.20;94.30
15930;DHT22;8064;51.142;4.780;2022-07-10T01:39:36;14.30;94.30
15930;DHT22;8064;51.142;4.780;2022-07-10T01:42:02;14.20;94.30
15930;DHT22;8064;51.142;4.780;2022-07-10T01:44:28;14.20;94.40
15930;DHT22;8064;51.142;4.780;2022-07-10T01:46:53;14.20;94.50
15930;DHT22;8064;51.142;4.780;2022-07-10T01:49:19;14.20;94.50
15930;DHT22;8064;51.142;4.780;2022-07-10T01:51:45;14.10;94.40
15930;DHT22;8064;51.142;4.780;2022-07-10T01:54:11;14.10;94.40
15930;DHT22;8064;51.142;4.780;2022-07-10T01:56:37;14.10;94.50
15930;DHT22;8064;51.142;4.780;2022-07-10T01:59:03;14.10;94.50
15930;DHT22;8064;51.142;4.780;2022-07-10T02:01:30;14.00;94.60
15930;DHT22;8064;51.142;4.780;2022-07-10T02:03:56;14.00;94.60
15930;DHT22;8064;51.142;4.780;2022-07-10T02:06:40;14.00;95.00
15930;DHT22;8064;51.142;4.780;2022-07-10T02:09:06;14.00;94.70
15930;DHT22;8064;51.142;4.780;2022-07-10T02:11:32;14.00;94.80
15930;DHT22;8064;51.142;4.780;2022-07-10T02:13:58;13.90;94.70
15930;DHT22;8064;51.142;4.780;2022-07-10T02:16:23;13.90;94.80
15930;DHT22;8064;51.142;4.780;2022-07-10T02:18:49;13.80;94.80
15930;DHT22;8064;51.142;4.780;2022-07-10T02:21:15;13.80;94.80
15930;DHT22;8064;51.142;4.780;2022-07-10T02:23:41;13.80;94.90
15930;DHT22;8064;51.142;4.780;2022-07-10T02:26:07;13.80;94.90
15930;DHT22;8064;51.142;4.780;2022-07-10T02:28:34;13.80;95.00
15930;DHT22;8064;51.142;4.780;2022-07-10T02:30:59;13.80;95.00
15930;DHT22;8064;51.142;4.780;2022-07-10T02:33:25;13.80;95.10
15930;DHT22;8064;51.142;4.780;2022-07-10T02:35:51;13.70;95.10
15930;DHT22;8064;51.142;4.780;2022-07-10T02:38:17;13.70;95.10
15930;DHT22;8064;51.142;4.780;2022-07-10T02:40:43;13.80;95.20
15930;DHT22;8064;51.142;4.780;2022-07-10T02:43:08;13.70;95.20
15930;DHT22;8064;51.142;4.780;2022-07-10T02:45:34;13.70;95.20
15930;DHT22;8064;51.142;4.780;2022-07-10T02:48:00;13.70;95.30
15930;DHT22;8064;51.142;4.780;2022-07-10T02:50:25;13.70;95.30
15930;DHT22;8064;51.142;4.780;2022-07-10T02:52:51;13.70;95.30
15930;DHT22;8064;51.142;4.780;2022-07-10T02:55:17;13.70;95.40
15930;DHT22;8064;51.142;4.780;2022-07-10T02:57:43;13.70;95.40
15930;DHT22;8064;51.142;4.780;2022-07-10T03:00:09;13.70;95.50
15930;DHT22;8064;51.142;4.780;2022-07-10T03:02:35;13.70;95.50
15930;DHT22;8064;51.142;4.780;2022-07-10T03:05:01;13.70;95.50
15930;DHT22;8064;51.142;4.780;2022-07-10T03:07:26;13.70;95.80
15930;DHT22;8064;51.142;4.780;2022-07-10T03:09:52;13.70;95.50
15930;DHT22;8064;51.142;4.780;2022-07-10T03:12:19;13.70;95.50
15930;DHT22;8064;51.142;4.780;2022-07-10T03:14:44;13.70;95.60
15930;DHT22;8064;51.142;4.780;2022-07-10T03:17:10;13.70;95.60
15930;DHT22;8064;51.142;4.780;2022-07-10T03:19:36;13.70;95.70
15930;DHT22;8064;51.142;4.780;2022-07-10T03:22:02;13.70;95.70
15930;DHT22;8064;51.142;4.780;2022-07-10T03:24:27;13.60;95.70
15930;DHT22;8064;51.142;4.780;2022-07-10T03:26:53;13.60;95.70
15930;DHT22;8064;51.142;4.780;2022-07-10T03:29:19;13.70;95.80
15930;DHT22;8064;51.142;4.780;2022-07-10T03:31:44;13.70;95.80
15930;DHT22;8064;51.142;4.780;2022-07-10T03:34:10;13.60;95.80
15930;DHT22;8064;51.142;4.780;2022-07-10T03:36:36;13.60;95.80
15930;DHT22;8064;51.142;4.780;2022-07-10T03:39:02;13.60;95.80
15930;DHT22;8064;51.142;4.780;2022-07-10T03:41:27;13.60;95.80
15930;DHT22;8064;51.142;4.780;2022-07-10T03:43:53;13.60;95.90
15930;DHT22;8064;51.142;4.780;2022-07-10T03:46:19;13.60;95.90
15930;DHT22;8064;51.142;4.780;2022-07-10T03:48:44;13.60;95.90
15930;DHT22;8064;51.142;4.780;2022-07-10T03:51:10;13.60;96.30
15930;DHT22;8064;51.142;4.780;2022-07-10T03:53:36;13.60;95.90
15930;DHT22;8064;51.142;4.780;2022-07-10T03:56:03;13.60;95.90
15930;DHT22;8064;51.142;4.780;2022-07-10T03:58:29;13.60;96.00
15930;DHT22;8064;51.142;4.780;2022-07-10T04:00:54;13.60;96.00
15930;DHT22;8064;51.142;4.780;2022-07-10T04:03:20;13.60;96.00
15930;DHT22;8064;51.142;4.780;2022-07-10T04:05:46;13.60;96.00
15930;DHT22;8064;51.142;4.780;2022-07-10T04:08:12;13.60;96.10
15930;DHT22;8064;51.142;4.780;2022-07-10T04:10:37;13.70;96.10
15930;DHT22;8064;51.142;4.780;2022-07-10T04:13:04;13.70;96.10
15930;DHT22;8064;51.142;4.780;2022-07-10T04:15:31;13.70;96.10
15930;DHT22;8064;51.142;4.780;2022-07-10T04:17:57;13.70;96.40
15930;DHT22;8064;51.142;4.780;2022-07-10T04:20:22;13.70;96.00
15930;DHT22;8064;51.142;4.780;2022-07-10T04:22:49;13.60;96.00
15930;DHT22;8064;51.142;4.780;2022-07-10T04:25:15;13.60;96.00
15930;DHT22;8064;51.142;4.780;2022-07-10T04:27:40;13.60;96.10
15930;DHT22;8064;51.142;4.780;2022-07-10T04:30:07;13.60;96.10
15930;DHT22;8064;51.142;4.780;2022-07-10T04:32:32;13.60;96.20
15930;DHT22;8064;51.142;4.780;2022-07-10T04:34:58;13.70;96.30
15930;DHT22;8064;51.142;4.780;2022-07-10T04:37:26;13.70;96.40
15930;DHT22;8064;51.142;4.780;2022-07-10T04:39:52;13.70;96.50
15930;DHT22;8064;51.142;4.780;2022-07-10T04:42:18;13.80;96.50
15930;DHT22;8064;51.142;4.780;2022-07-10T04:44:43;13.80;96.50
15930;DHT22;8064;51.142;4.780;2022-07-10T04:47:09;13.90;96.60
15930;DHT22;8064;51.142;4.780;2022-07-10T04:49:35;14.00;96.60
15930;DHT22;8064;51.142;4.780;2022-07-10T04:52:01;14.00;96.70
15930;DHT22;8064;51.142;4.780;2022-07-10T04:54:26;14.10;96.70
15930;DHT22;8064;51.142;4.780;2022-07-10T04:56:52;14.10;96.80
15930;DHT22;8064;51.142;4.780;2022-07-10T04:59:18;14.20;96.90
15930;DHT22;8064;51.142;4.780;2022-07-10T05:01:44;14.30;96.90
15930;DHT22;8064;51.142;4.780;2022-07-10T05:04:10;14.30;97.00
15930;DHT22;8064;51.142;4.780;2022-07-10T05:06:36;14.40;97.00
15930;DHT22;8064;51.142;4.780;2022-07-10T05:09:03;14.50;97.10
15930;DHT22;8064;51.142;4.780;2022-07-10T05:11:29;14.60;97.10
15930;DHT22;8064;51.142;4.780;2022-07-10T05:13:55;14.60;97.10
15930;DHT22;8064;51.142;4.780;2022-07-10T05:16:21;14.70;97.20
15930;DHT22;8064;51.142;4.780;2022-07-10T05:18:47;14.80;97.20
15930;DHT22;8064;51.142;4.780;2022-07-10T05:21:13;14.80;97.20
15930;DHT22;8064;51.142;4.780;2022-07-10T05:23:39;14.90;97.30
15930;DHT22;8064;51.142;4.780;2022-07-10T05:26:06;14.90;97.30
15930;DHT22;8064;51.142;4.780;2022-07-10T05:28:32;15.00;97.30
15930;DHT22;8064;51.142;4.780;2022-07-10T05:30:57;15.00;97.30
15930;DHT22;8064;51.142;4.780;2022-07-10T05:33:23;15.10;97.30
15930;DHT22;8064;51.142;4.780;2022-07-10T05:35:49;15.10;97.30
15930;DHT22;8064;51.142;4.780;2022-07-10T05:38:15;15.10;97.30
15930;DHT22;8064;51.142;4.780;2022-07-10T05:40:43;15.20;97.40
15930;DHT22;8064;51.142;4.780;2022-07-10T05:43:08;15.30;97.40
15930;DHT22;8064;51.142;4.780;2022-07-10T05:45:35;15.30;97.30
15930;DHT22;8064;51.142;4.780;2022-07-10T05:48:01;15.40;97.30
15930;DHT22;8064;51.142;4.780;2022-07-10T05:50:27;15.50;97.30
15930;DHT22;8064;51.142;4.780;2022-07-10T05:52:52;15.50;97.20
15930;DHT22;8064;51.142;4.780;2022-07-10T05:55:18;15.60;97.20
15930;DHT22;8064;51.142;4.780;2022-07-10T05:57:44;15.60;97.20
15930;DHT22;8064;51.142;4.780;2022-07-10T06:00:10;15.70;97.20
15930;DHT22;8064;51.142;4.780;2022-07-10T06:02:36;15.80;97.30
15930;DHT22;8064;51.142;4.780;2022-07-10T06:05:02;15.80;97.20
15930;DHT22;8064;51.142;4.780;2022-07-10T06:07:28;15.90;97.20
15930;DHT22;8064;51.142;4.780;2022-07-10T06:09:54;15.90;97.10
15930;DHT22;8064;51.142;4.780;2022-07-10T06:12:21;16.00;97.20
15930;DHT22;8064;51.142;4.780;2022-07-10T06:14:46;16.10;97.10
15930;DHT22;8064;51.142;4.780;2022-07-10T06:17:12;16.10;97.10
15930;DHT22;8064;51.142;4.780;2022-07-10T06:19:38;16.20;97.10
15930;DHT22;8064;51.142;4.780;2022-07-10T06:22:04;16.20;97.10
15930;DHT22;8064;51.142;4.780;2022-07-10T06:24:48;16.30;97.10
15930;DHT22;8064;51.142;4.780;2022-07-10T06:27:14;16.40;97.10
15930;DHT22;8064;51.142;4.780;2022-07-10T06:29:40;16.50;97.10
15930;DHT22;8064;51.142;4.780;2022-07-10T06:32:06;16.60;97.10
15930;DHT22;8064;51.142;4.780;2022-07-10T06:34:32;16.60;97.10
15930;DHT22;8064;51.142;4.780;2022-07-10T06:36:58;16.70;97.00
15930;DHT22;8064;51.142;4.780;2022-07-10T06:39:24;16.80;97.00
15930;DHT22;8064;51.142;4.780;2022-07-10T06:41:49;16.80;97.00
15930;DHT22;8064;51.142;4.780;2022-07-10T06:44:15;16.90;96.90
15930;DHT22;8064;51.142;4.780;2022-07-10T06:46:41;17.00;96.90
15930;DHT22;8064;51.142;4.780;2022-07-10T06:49:07;17.00;96.90
15930;DHT22;8064;51.142;4.780;2022-07-10T06:51:34;17.10;96.90
15930;DHT22;8064;51.142;4.780;2022-07-10T06:54:00;17.20;96.90
15930;DHT22;8064;51.142;4.780;2022-07-10T06:56:26;17.20;96.80
15930;DHT22;8064;51.142;4.780;2022-07-10T06:58:52;17.30;96.70
15930;DHT22;8064;51.142;4.780;2022-07-10T07:01:18;17.40;96.60
15930;DHT22;8064;51.142;4.780;2022-07-10T07:03:44;17.50;96.60
15930;DHT22;8064;51.142;4.780;2022-07-10T07:06:09;17.70;96.60
15930;DHT22;8064;51.142;4.780;2022-07-10T07:08:35;17.80;96.50
15930;DHT22;8064;51.142;4.780;2022-07-10T07:11:02;18.00;96.40
15930;DHT22;8064;51.142;4.780;2022-07-10T07:13:28;18.30;96.30
15930;DHT22;8064;51.142;4.780;2022-07-10T07:15:54;18.60;96.10
15930;DHT22;8064;51.142;4.780;2022-07-10T07:18:26;18.90;95.90
15930;DHT22;8064;51.142;4.780;2022-07-10T07:21:01;19.20;95.70
15930;DHT22;8064;51.142;4.780;2022-07-10T07:23:46;19.50;95.50
15930;DHT22;8064;51.142;4.780;2022-07-10T07:26:12;19.80;95.20
15930;DHT22;8064;51.142;4.780;2022-07-10T07:28:40;20.00;94.90
15930;DHT22;8064;51.142;4.780;2022-07-10T07:31:06;20.10;94.60
15930;DHT22;8064;51.142;4.780;2022-07-10T07:33:32;20.30;94.40
15930;DHT22;8064;51.142;4.780;2022-07-10T07:35:58;20.50;94.20
15930;DHT22;8064;51.142;4.780;2022-07-10T07:38:24;20.70;94.30
15930;DHT22;8064;51.142;4.780;2022-07-10T07:40:49;20.90;93.80
15930;DHT22;8064;51.142;4.780;2022-07-10T07:43:15;21.10;93.60
15930;DHT22;8064;51.142;4.780;2022-07-10T07:45:41;21.20;93.30
15930;DHT22;8064;51.142;4.780;2022-07-10T07:48:07;21.40;93.10
15930;DHT22;8064;51.142;4.780;2022-07-10T07:50:35;21.50;92.90
15930;DHT22;8064;51.142;4.780;2022-07-10T07:53:02;21.70;92.60
15930;DHT22;8064;51.142;4.780;2022-07-10T07:55:31;21.90;92.50
15930;DHT22;8064;51.142;4.780;2022-07-10T07:57:58;22.10;92.30
15930;DHT22;8064;51.142;4.780;2022-07-10T08:00:27;22.30;92.00
15930;DHT22;8064;51.142;4.780;2022-07-10T08:02:53;22.40;91.70
15930;DHT22;8064;51.142;4.780;2022-07-10T08:05:20;22.60;91.40
15930;DHT22;8064;51.142;4.780;2022-07-10T08:07:52;22.70;91.10
15930;DHT22;8064;51.142;4.780;2022-07-10T08:10:22;22.70;90.90
15930;DHT22;8064;51.142;4.780;2022-07-10T08:12:48;22.70;90.80
15930;DHT22;8064;51.142;4.780;2022-07-10T08:15:16;22.60;90.50
15930;DHT22;8064;51.142;4.780;2022-07-10T08:17:42;22.60;90.30
15930;DHT22;8064;51.142;4.780;2022-07-10T08:20:10;22.50;90.20
15930;DHT22;8064;51.142;4.780;2022-07-10T08:22:37;22.50;90.20
15930;DHT22;8064;51.142;4.780;2022-07-10T08:25:03;22.60;90.10
15930;DHT22;8064;51.142;4.780;2022-07-10T08:27:29;22.70;90.00
15930;DHT22;8064;51.142;4.780;2022-07-10T08:29:55;22.80;89.80
15930;DHT22;8064;51.142;4.780;2022-07-10T08:32:20;22.90;89.30
15930;DHT22;8064;51.142;4.780;2022-07-10T08:34:46;23.00;88.80
15930;DHT22;8064;51.142;4.780;2022-07-10T08:37:13;23.00;88.70
15930;DHT22;8064;51.142;4.780;2022-07-10T08:39:39;23.10;88.30
15930;DHT22;8064;51.142;4.780;2022-07-10T08:42:06;23.20;88.00
15930;DHT22;8064;51.142;4.780;2022-07-10T08:44:33;23.40;88.00
15930;DHT22;8064;51.142;4.780;2022-07-10T08:46:59;23.50;88.00
15930;DHT22;8064;51.142;4.780;2022-07-10T08:49:28;23.70;87.90
15930;DHT22;8064;51.142;4.780;2022-07-10T08:52:04;23.90;88.20
15930;DHT22;8064;51.142;4.780;2022-07-10T08:54:32;24.20;87.10
15930;DHT22;8064;51.142;4.780;2022-07-10T08:56:59;24.40;87.10
15930;DHT22;8064;51.142;4.780;2022-07-10T08:59:26;24.70;87.00
15930;DHT22;8064;51.142;4.780;2022-07-10T09:01:53;24.80;86.60
15930;DHT22;8064;51.142;4.780;2022-07-10T09:04:21;25.00;86.10
15930;DHT22;8064;51.142;4.780;2022-07-10T09:06:48;25.00;85.20
15930;DHT22;8064;51.142;4.780;2022-07-10T09:09:14;25.00;84.90
15930;DHT22;8064;51.142;4.780;2022-07-10T09:11:40;25.00;84.20
15930;DHT22;8064;51.142;4.780;2022-07-10T09:14:09;24.90;83.90
15930;DHT22;8064;51.142;4.780;2022-07-10T09:16:38;24.90;84.50
15930;DHT22;8064;51.142;4.780;2022-07-10T09:22:16;24.80;84.00
15930;DHT22;8064;51.142;4.780;2022-07-10T09:24:44;24.60;84.20
15930;DHT22;8064;51.142;4.780;2022-07-10T09:27:12;24.50;84.10
15930;DHT22;8064;51.142;4.780;2022-07-10T09:29:49;24.30;83.70
15930;DHT22;8064;51.142;4.780;2022-07-10T09:32:19;24.20;83.70
15930;DHT22;8064;51.142;4.780;2022-07-10T09:34:48;24.10;84.80
15930;DHT22;8064;51.142;4.780;2022-07-10T09:37:31;24.00;84.10
15930;DHT22;8064;51.142;4.780;2022-07-10T09:40:00;23.90;84.10
15930;DHT22;8064;51.142;4.780;2022-07-10T09:45:14;23.70;84.90
15930;DHT22;8064;51.142;4.780;2022-07-10T09:47:55;23.50;85.30
15930;DHT22;8064;51.142;4.780;2022-07-10T09:50:34;23.50;85.50
15930;DHT22;8064;51.142;4.780;2022-07-10T09:53:02;23.40;85.70
15930;DHT22;8064;51.142;4.780;2022-07-10T09:55:31;23.30;86.60
15930;DHT22;8064;51.142;4.780;2022-07-10T09:58:03;23.30;85.70
15930;DHT22;8064;51.142;4.780;2022-07-10T10:00:32;23.30;85.90
15930;DHT22;8064;51.142;4.780;2022-07-10T10:03:00;23.30;86.10
15930;DHT22;8064;51.142;4.780;2022-07-10T10:05:52;23.50;85.90
15930;DHT22;8064;51.142;4.780;2022-07-10T10:10:50;23.80;85.80
15930;DHT22;8064;51.142;4.780;2022-07-10T10:15:44;23.90;85.40
15930;DHT22;8064;51.142;4.780;2022-07-10T10:18:12;23.80;85.30
15930;DHT22;8064;51.142;4.780;2022-07-10T10:20:38;23.70;85.40
15930;DHT22;8064;51.142;4.780;2022-07-10T10:23:10;23.60;85.50
15930;DHT22;8064;51.142;4.780;2022-07-10T10:25:38;23.50;85.60
15930;DHT22;8064;51.142;4.780;2022-07-10T10:28:05;23.30;85.70
15930;DHT22;8064;51.142;4.780;2022-07-10T10:30:33;23.30;86.80
15930;DHT22;8064;51.142;4.780;2022-07-10T10:33:01;23.20;86.60
15930;DHT22;8064;51.142;4.780;2022-07-10T10:35:46;23.10;86.90
15930;DHT22;8064;51.142;4.780;2022-07-10T10:38:14;23.00;87.00
15930;DHT22;8064;51.142;4.780;2022-07-10T10:40:41;23.00;87.20
15930;DHT22;8064;51.142;4.780;2022-07-10T10:43:21;23.00;87.20
15930;DHT22;8064;51.142;4.780;2022-07-10T10:45:47;23.00;88.30
15930;DHT22;8064;51.142;4.780;2022-07-10T10:48:15;23.10;87.50
15930;DHT22;8064;51.142;4.780;2022-07-10T10:50:47;23.20;87.00
15930;DHT22;8064;51.142;4.780;2022-07-10T10:58:27;23.40;85.90
15930;DHT22;8064;51.142;4.780;2022-07-10T11:01:23;23.50;86.10
15930;DHT22;8064;51.142;4.780;2022-07-10T11:06:47;23.80;85.90
15930;DHT22;8064;51.142;4.780;2022-07-10T11:09:32;23.80;86.50
15930;DHT22;8064;51.142;4.780;2022-07-10T11:14:46;23.70;85.90
15930;DHT22;8064;51.142;4.780;2022-07-10T11:17:13;23.60;86.20
15930;DHT22;8064;51.142;4.780;2022-07-10T11:19:39;23.50;86.20
15930;DHT22;8064;51.142;4.780;2022-07-10T11:27:52;23.80;86.30
15930;DHT22;8064;51.142;4.780;2022-07-10T11:30:19;24.00;86.50
15930;DHT22;8064;51.142;4.780;2022-07-10T11:32:45;24.20;85.60
15930;DHT22;8064;51.142;4.780;2022-07-10T11:35:12;24.30;85.30
15930;DHT22;8064;51.142;4.780;2022-07-10T11:37:58;24.40;85.30
15930;DHT22;8064;51.142;4.780;2022-07-10T11:40:44;24.60;85.30
15930;DHT22;8064;51.142;4.780;2022-07-10T11:43:10;24.70;84.90
15930;DHT22;8064;51.142;4.780;2022-07-10T11:45:39;24.70;84.50
15930;DHT22;8064;51.142;4.780;2022-07-10T11:48:06;24.80;84.80
15930;DHT22;8064;51.142;4.780;2022-07-10T11:50:37;24.90;84.90
15930;DHT22;8064;51.142;4.780;2022-07-10T11:53:03;24.90;84.90
15930;DHT22;8064;51.142;4.780;2022-07-10T11:55:29;24.90;84.60
15930;DHT22;8064;51.142;4.780;2022-07-10T11:57:57;24.90;84.40
15930;DHT22;8064;51.142;4.780;2022-07-10T12:00:25;24.80;84.40
15930;DHT22;8064;51.142;4.780;2022-07-10T12:02:51;24.70;84.40
15930;DHT22;8064;51.142;4.780;2022-07-10T12:05:31;24.70;84.80
15930;DHT22;8064;51.142;4.780;2022-07-10T12:07:57;24.70;84.50
15930;DHT22;8064;51.142;4.780;2022-07-10T12:10:34;24.80;84.60
15930;DHT22;8064;51.142;4.780;2022-07-10T12:13:19;24.80;84.70
15930;DHT22;8064;51.142;4.780;2022-07-10T12:15:46;24.90;84.40
15930;DHT22;8064;51.142;4.780;2022-07-10T12:18:30;24.90;84.40
15930;DHT22;8064;51.142;4.780;2022-07-10T12:20:58;24.70;84.00
15930;DHT22;8064;51.142;4.780;2022-07-10T12:23:25;24.70;84.40
15930;DHT22;8064;51.142;4.780;2022-07-10T12:25:51;24.70;84.40
15930;DHT22;8064;51.142;4.780;2022-07-10T12:28:17;24.70;84.20
15930;DHT22;8064;51.142;4.780;2022-07-10T12:30:46;24.80;84.40
15930;DHT22;8064;51.142;4.780;2022-07-10T12:33:14;24.90;84.70
15930;DHT22;8064;51.142;4.780;2022-07-10T12:35:56;25.00;84.60
15930;DHT22;8064;51.142;4.780;2022-07-10T12:40:49;25.10;84.30
15930;DHT22;8064;51.142;4.780;2022-07-10T12:43:26;25.20;83.90
15930;DHT22;8064;51.142;4.780;2022-07-10T12:46:13;25.20;83.40
15930;DHT22;8064;51.142;4.780;2022-07-10T12:48:42;25.30;83.00
15930;DHT22;8064;51.142;4.780;2022-07-10T12:51:25;25.30;83.30
15930;DHT22;8064;51.142;4.780;2022-07-10T12:53:51;25.30;83.20
15930;DHT22;8064;51.142;4.780;2022-07-10T12:56:29;25.40;82.90
15930;DHT22;8064;51.142;4.780;2022-07-10T12:58:55;25.40;82.00
15930;DHT22;8064;51.142;4.780;2022-07-10T13:01:21;25.40;81.80
15930;DHT22;8064;51.142;4.780;2022-07-10T13:03:47;25.40;82.10
15930;DHT22;8064;51.142;4.780;2022-07-10T13:06:26;25.40;82.20
15930;DHT22;8064;51.142;4.780;2022-07-10T13:08:52;25.40;82.10
15930;DHT22;8064;51.142;4.780;2022-07-10T13:11:18;25.50;82.20
15930;DHT22;8064;51.142;4.780;2022-07-10T13:13:44;25.50;82.20
15930;DHT22;8064;51.142;4.780;2022-07-10T13:16:10;25.60;82.20
15930;DHT22;8064;51.142;4.780;2022-07-10T13:18:35;25.60;82.00
15930;DHT22;8064;51.142;4.780;2022-07-10T13:21:01;25.60;82.10
15930;DHT22;8064;51.142;4.780;2022-07-10T13:23:29;25.60;82.00
15930;DHT22;8064;51.142;4.780;2022-07-10T13:25:56;25.50;81.80
15930;DHT22;8064;51.142;4.780;2022-07-10T13:28:22;25.50;82.10
15930;DHT22;8064;51.142;4.780;2022-07-10T13:30:48;25.50;82.00
15930;DHT22;8064;51.142;4.780;2022-07-10T13:33:14;25.50;82.10
15930;DHT22;8064;51.142;4.780;2022-07-10T13:35:40;25.60;82.20
15930;DHT22;8064;51.142;4.780;2022-07-10T13:38:07;25.60;82.10
15930;DHT22;8064;51.142;4.780;2022-07-10T13:40:35;25.70;81.80
15930;DHT22;8064;51.142;4.780;2022-07-10T13:43:02;25.70;81.90
15930;DHT22;8064;51.142;4.780;2022-07-10T13:45:29;25.70;82.00
15930;DHT22;8064;51.142;4.780;2022-07-10T13:47:59;25.80;82.10
15930;DHT22;8064;51.142;4.780;2022-07-10T13:50:25;25.80;81.80
15930;DHT22;8064;51.142;4.780;2022-07-10T13:52:51;25.80;81.60
15930;DHT22;8064;51.142;4.780;2022-07-10T13:55:17;25.80;81.20
15930;DHT22;8064;51.142;4.780;2022-07-10T13:57:43;25.70;81.10
15930;DHT22;8064;51.142;4.780;2022-07-10T14:00:09;25.60;81.40
15930;DHT22;8064;51.142;4.780;2022-07-10T14:02:36;25.60;81.40
15930;DHT22;8064;51.142;4.780;2022-07-10T14:05:02;25.50;81.20
15930;DHT22;8064;51.142;4.780;2022-07-10T14:07:28;25.40;81.20
15930;DHT22;8064;51.142;4.780;2022-07-10T14:09:54;25.30;81.40
15930;DHT22;8064;51.142;4.780;2022-07-10T14:12:20;25.20;81.70
15930;DHT22;8064;51.142;4.780;2022-07-10T14:14:46;25.10;81.90
15930;DHT22;8064;51.142;4.780;2022-07-10T14:17:13;25.10;82.00
15930;DHT22;8064;51.142;4.780;2022-07-10T14:19:39;25.10;81.70
15930;DHT22;8064;51.142;4.780;2022-07-10T14:22:07;25.10;81.50
15930;DHT22;8064;51.142;4.780;2022-07-10T14:24:33;25.10;81.50
15930;DHT22;8064;51.142;4.780;2022-07-10T14:26:58;25.10;81.50
15930;DHT22;8064;51.142;4.780;2022-07-10T14:29:24;25.00;81.70
15930;DHT22;8064;51.142;4.780;2022-07-10T14:31:50;25.00;81.90
15930;DHT22;8064;51.142;4.780;2022-07-10T14:34:17;25.00;82.00
15930;DHT22;8064;51.142;4.780;2022-07-10T14:36:43;25.00;81.90
15930;DHT22;8064;51.142;4.780;2022-07-10T14:39:09;25.10;81.90
15930;DHT22;8064;51.142;4.780;2022-07-10T14:41:38;25.10;81.80
15930;DHT22;8064;51.142;4.780;2022-07-10T14:44:05;25.10;81.80
15930;DHT22;8064;51.142;4.780;2022-07-10T14:46:32;25.10;81.90
15930;DHT22;8064;51.142;4.780;2022-07-10T14:48:57;25.10;81.70
15930;DHT22;8064;51.142;4.780;2022-07-10T14:51:23;25.10;81.20
15930;DHT22;8064;51.142;4.780;2022-07-10T14:53:49;25.10;81.00
15930;DHT22;8064;51.142;4.780;2022-07-10T14:56:15;25.10;80.90
15930;DHT22;8064;51.142;4.780;2022-07-10T14:58:43;25.10;80.80
15930;DHT22;8064;51.142;4.780;2022-07-10T15:01:08;25.10;81.00
15930;DHT22;8064;51.142;4.780;2022-07-10T15:03:34;25.10;81.00
15930;DHT22;8064;51.142;4.780;2022-07-10T15:06:00;25.10;81.00
15930;DHT22;8064;51.142;4.780;2022-07-10T15:08:26;25.10;80.90
15930;DHT22;8064;51.142;4.780;2022-07-10T15:10:52;25.10;80.80
15930;DHT22;8064;51.142;4.780;2022-07-10T15:13:18;25.10;80.70
15930;DHT22;8064;51.142;4.780;2022-07-10T15:15:44;25.10;80.60
15930;DHT22;8064;51.142;4.780;2022-07-10T15:18:10;25.10;80.60
15930;DHT22;8064;51.142;4.780;2022-07-10T15:20:36;25.10;80.70
15930;DHT22;8064;51.142;4.780;2022-07-10T15:23:03;25.10;80.90
15930;DHT22;8064;51.142;4.780;2022-07-10T15:25:29;25.10;80.40
15930;DHT22;8064;51.142;4.780;2022-07-10T15:27:55;25.00;80.20
15930;DHT22;8064;51.142;4.780;2022-07-10T15:30:21;25.00;79.70
15930;DHT22;8064;51.142;4.780;2022-07-10T15:32:47;25.00;79.60
15930;DHT22;8064;51.142;4.780;2022-07-10T15:35:13;25.00;79.40
15930;DHT22;8064;51.142;4.780;2022-07-10T15:37:39;25.00;79.20
15930;DHT22;8064;51.142;4.780;2022-07-10T15:40:05;24.90;79.20
15930;DHT22;8064;51.142;4.780;2022-07-10T15:42:31;24.90;79.20
15930;DHT22;8064;51.142;4.780;2022-07-10T15:44:57;24.90;79.40
15930;DHT22;8064;51.142;4.780;2022-07-10T15:47:23;24.90;79.40
15930;DHT22;8064;51.142;4.780;2022-07-10T15:49:49;24.80;79.60
15930;DHT22;8064;51.142;4.780;2022-07-10T15:52:15;24.90;79.70
15930;DHT22;8064;51.142;4.780;2022-07-10T15:54:41;24.90;79.50
15930;DHT22;8064;51.142;4.780;2022-07-10T15:57:07;24.90;79.30
15930;DHT22;8064;51.142;4.780;2022-07-10T15:59:33;24.90;79.20
15930;DHT22;8064;51.142;4.780;2022-07-10T16:02:00;24.90;79.30
15930;DHT22;8064;51.142;4.780;2022-07-10T16:04:26;24.90;79.70
15930;DHT22;8064;51.142;4.780;2022-07-10T16:06:52;24.90;79.70
15930;DHT22;8064;51.142;4.780;2022-07-10T16:09:20;24.90;79.80
15930;DHT22;8064;51.142;4.780;2022-07-10T16:11:46;24.90;79.80
15930;DHT22;8064;51.142;4.780;2022-07-10T16:14:12;24.90;79.60
15930;DHT22;8064;51.142;4.780;2022-07-10T16:16:38;24.90;79.70